Time;durP1;ratioP1;P1;durP2;ratioP2;P2;SDS_P1;SDS_P2;PMS_P1;PMS_P2;Temp;Humidity;BMP_temperature;BMP_pressure;BME280_temperature;BME280_humidity;BME280_pressure;Samples;Min_cycle;Max_cycle;Signal;HPM_P1;HPM_P2
2023/05/23 00:01:53;;;;;;;4.72;3.15;;;;;;;24.81;53.60;99948.44;5073459;28;20049;-65
2023/05/23 00:04:25;;;;;;;4.50;3.47;;;;;;;24.81;53.19;99953.88;5073418;28;20477;-64
2023/05/23 00:06:54;;;;;;;6.10;3.50;;;;;;;24.79;53.52;99945.88;5073286;28;20044;-63
2023/05/23 00:09:22;;;;;;;5.93;3.47;;;;;;;24.77;53.29;99941.66;5073548;28;20474;-64
2023/05/23 00:11:52;;;;;;;5.93;3.33;;;;;;;24.76;53.41;99942.69;5073360;28;20102;-64
2023/05/23 00:14:22;;;;;;;4.50;3.15;;;;;;;24.74;53.36;99931.13;5072123;28;20393;-65
2023/05/23 00:16:50;;;;;;;5.43;3.53;;;;;;;24.74;53.57;99936.59;5073028;28;20102;-63
2023/05/23 00:19:19;;;;;;;4.55;3.20;;;;;;;24.72;53.24;99935.94;5073079;28;20139;-64
2023/05/23 00:21:48;;;;;;;4.93;3.30;;;;;;;24.71;53.25;99931.53;5073417;28;20080;-63
2023/05/23 00:24:17;;;;;;;4.60;3.22;;;;;;;24.69;53.31;99939.88;5073247;28;20040;-65
2023/05/23 00:26:46;;;;;;;4.85;3.47;;;;;;;24.67;53.53;99936.50;5073226;28;20054;-65
2023/05/23 00:29:16;;;;;;;5.10;3.33;;;;;;;24.66;53.42;99939.41;5073136;28;20048;-64
2023/05/23 00:31:45;;;;;;;4.47;3.10;;;;;;;24.65;53.71;99938.56;5072826;28;20091;-65
2023/05/23 00:34:16;;;;;;;5.07;3.38;;;;;;;24.63;53.35;99935.19;5073104;28;20169;-65
2023/05/23 00:36:46;;;;;;;6.90;3.47;;;;;;;24.62;53.46;99936.25;5073247;28;20052;-65
2023/05/23 00:39:18;;;;;;;4.45;3.28;;;;;;;24.61;53.45;99936.41;5072847;28;20084;-65
2023/05/23 00:41:49;;;;;;;6.30;3.60;;;;;;;24.60;53.59;99941.00;5072786;28;20703;-65
2023/05/23 00:44:22;;;;;;;5.05;3.45;;;;;;;24.58;53.43;99937.63;5072706;28;20044;-65
2023/05/23 00:46:53;;;;;;;4.93;3.00;;;;;;;24.57;53.45;99941.41;5072865;28;20471;-65
2023/05/23 00:49:22;;;;;;;5.68;3.08;;;;;;;24.55;53.41;99938.88;5072602;28;20484;-64
2023/05/23 00:51:51;;;;;;;5.45;2.90;;;;;;;24.54;53.59;99942.63;5072577;28;20548;-64
2023/05/23 00:54:24;;;;;;;4.68;3.30;;;;;;;24.53;53.58;99940.94;5072597;28;20084;-65
2023/05/23 00:56:53;;;;;;;;;;;;;;;24.51;53.63;99932.13;5072734;28;20055;-65
2023/05/23 00:59:24;;;;;;;5.45;3.45;;;;;;;24.50;53.42;99930.41;5072564;28;19927;-65
2023/05/23 01:01:55;;;;;;;4.85;3.10;;;;;;;24.48;53.36;99932.47;5072538;28;20079;-65
2023/05/23 01:04:25;;;;;;;5.20;3.17;;;;;;;24.49;53.45;99930.59;5052367;28;20120;-63
2023/05/23 01:06:54;;;;;;;4.35;3.05;;;;;;;24.46;53.72;99934.56;5052235;28;20041;-65
2023/05/23 01:09:25;;;;;;;4.03;2.88;;;;;;;24.45;53.52;99930.13;5052148;28;20053;-64
2023/05/23 01:12:06;;;;;;;4.57;3.05;;;;;;;24.44;53.62;99924.88;5052135;28;20049;-65
2023/05/23 01:14:43;;;;;;;5.85;3.33;;;;;;;24.42;53.68;99922.34;5052242;28;20075;-64
2023/05/23 01:17:16;;;;;;;5.35;3.33;;;;;;;24.41;53.76;99926.09;5051980;28;20055;-64
2023/05/23 01:19:56;;;;;;;5.43;3.20;;;;;;;24.40;53.83;99927.13;5051987;28;20051;-64
2023/05/23 01:22:43;;;;;;;5.22;3.42;;;;;;;24.39;53.62;99928.16;5052154;28;20053;-65
2023/05/23 01:25:25;;;;;;;4.68;3.20;;;;;;;24.38;53.63;99923.75;5052172;28;20474;-65
2023/05/23 01:27:57;;;;;;;4.85;3.17;;;;;;;24.35;53.55;99924.13;5051409;28;20045;-65
2023/05/23 01:30:26;;;;;;;4.73;3.13;;;;;;;24.34;53.61;99925.19;5051897;28;20064;-64
2023/05/23 01:32:56;;;;;;;4.63;3.00;;;;;;;24.33;53.67;99923.50;5051920;28;20437;-64
2023/05/23 01:35:26;;;;;;;4.95;3.30;;;;;;;24.33;53.73;99925.38;5052157;28;20147;-65
2023/05/23 01:37:55;;;;;;;4.97;3.15;;;;;;;24.31;53.65;99925.53;5051936;28;20478;-65
2023/05/23 01:40:25;;;;;;;4.75;3.20;;;;;;;24.30;53.63;99923.81;5051750;28;20060;-65
2023/05/23 01:42:57;;;;;;;4.25;3.17;;;;;;;24.28;53.80;99917.72;5051792;28;20044;-66
2023/05/23 01:45:27;;;;;;;4.63;3.07;;;;;;;24.27;53.68;99924.19;5051851;28;20099;-65
2023/05/23 01:47:57;;;;;;;5.38;3.38;;;;;;;24.26;53.61;99923.34;5051801;28;20053;-65
2023/05/23 01:50:26;;;;;;;4.13;3.10;;;;;;;24.25;53.64;99915.38;5051627;28;20044;-65
2023/05/23 01:52:55;;;;;;;5.32;3.05;;;;;;;24.24;53.69;99921.84;5051340;28;20514;-65
2023/05/23 01:55:25;;;;;;;4.15;2.92;;;;;;;24.23;53.69;99915.56;5051550;28;20055;-65
2023/05/23 01:57:56;;;;;;;5.07;3.20;;;;;;;24.21;53.66;99914.88;5051636;28;20110;-65
2023/05/23 02:00:25;;;;;;;4.60;3.17;;;;;;;24.19;53.75;99911.50;5051546;28;20053;-66
2023/05/23 02:02:54;;;;;;;4.45;2.92;;;;;;;24.19;53.83;99910.66;5051284;28;20406;-65
2023/05/23 02:05:22;;;;;;;4.78;3.20;;;;;;;24.18;53.73;99911.69;5051372;28;20510;-65
2023/05/23 02:07:50;;;;;;;5.68;3.30;;;;;;;24.16;53.79;99906.44;5051435;28;20048;-65
2023/05/23 02:10:19;;;;;;;4.47;3.15;;;;;;;24.15;53.76;99904.75;5051198;28;20052;-65
2023/05/23 02:12:47;;;;;;;4.25;2.90;;;;;;;24.14;53.80;99902.22;5051251;28;20186;-65
2023/05/23 02:15:17;;;;;;;4.60;3.03;;;;;;;24.13;53.78;99901.38;5051330;28;20521;-65
2023/05/23 02:17:47;;;;;;;4.88;3.00;;;;;;;24.13;53.93;99900.53;5051323;28;20186;-65
2023/05/23 02:20:17;;;;;;;4.68;3.00;;;;;;;24.10;53.96;99896.28;5051093;28;20049;-65
2023/05/23 02:22:46;;;;;;;4.57;3.00;;;;;;;24.09;53.91;99900.06;5050981;28;20049;-65
2023/05/23 02:25:17;;;;;;;4.60;2.90;;;;;;;24.09;53.95;99910.09;5051364;28;20064;-65
2023/05/23 02:27:45;;;;;;;5.28;3.15;;;;;;;24.07;53.93;99906.72;5051333;28;20049;-65
2023/05/23 02:30:14;;;;;;;4.53;3.20;;;;;;;24.05;53.77;99904.19;5051260;28;20056;-65
2023/05/23 02:32:43;;;;;;;4.10;3.00;;;;;;;24.04;53.77;99901.66;5051452;28;20073;-65
2023/05/23 02:35:12;;;;;;;4.72;3.00;;;;;;;24.03;53.93;99902.66;5050994;28;20040;-65
2023/05/23 02:37:40;;;;;;;4.20;2.97;;;;;;;24.01;53.99;99908.31;5051211;28;20049;-65
2023/05/23 02:40:09;;;;;;;5.68;3.20;;;;;;;23.99;54.01;99910.38;5053173;28;20053;-65
2023/05/23 02:42:37;;;;;;;4.10;2.75;;;;;;;23.98;54.03;99900.53;5055148;28;20127;-65
2023/05/23 02:45:06;;;;;;;4.35;3.08;;;;;;;23.97;54.16;99902.41;5055035;28;20048;-65
2023/05/23 02:47:35;;;;;;;5.15;3.00;;;;;;;23.97;53.87;99902.41;5054836;28;20045;-65
2023/05/23 02:50:05;;;;;;;4.85;3.35;;;;;;;23.95;54.01;99899.03;5054757;28;20098;-65
2023/05/23 02:52:33;;;;;;;5.57;3.80;;;;;;;23.95;53.87;99893.56;5054885;28;20041;-65
2023/05/23 02:55:02;;;;;;;5.82;3.60;;;;;;;23.92;54.05;99896.66;5054818;28;20046;-65
2023/05/23 02:57:30;;;;;;;5.57;3.30;;;;;;;23.92;53.96;99899.38;5054834;28;20051;-65
2023/05/23 02:59:58;;;;;;;5.40;3.55;;;;;;;23.90;54.05;99896.00;5054602;28;20382;-65
2023/05/23 03:02:26;;;;;;;5.10;3.67;;;;;;;23.89;53.91;99896.19;5054474;28;20108;-64
2023/05/23 03:04:56;;;;;;;5.22;3.92;;;;;;;23.88;54.18;99894.50;5054883;28;20052;-64
2023/05/23 03:07:25;;;;;;;5.43;3.42;;;;;;;23.86;54.10;99891.97;5054875;28;20091;-64
2023/05/23 03:09:55;;;;;;;4.82;3.15;;;;;;;23.87;54.21;99892.81;5054799;28;20053;-64
2023/05/23 03:12:24;;;;;;;5.70;3.83;;;;;;;23.84;54.17;99891.31;5054390;28;20049;-63
2023/05/23 03:14:52;;;;;;;6.63;3.80;;;;;;;23.84;54.05;99893.19;5054395;28;20057;-64
2023/05/23 03:17:20;;;;;;;5.50;3.53;;;;;;;23.83;53.95;99900.50;5054276;28;20061;-64
2023/05/23 03:19:49;;;;;;;5.32;3.60;;;;;;;23.81;54.13;99891.69;5054491;28;20049;-64
2023/05/23 03:22:17;;;;;;;5.60;3.30;;;;;;;23.81;54.08;99901.72;5054071;28;20482;-64
2023/05/23 03:24:47;;;;;;;5.05;3.40;;;;;;;23.81;54.24;99904.44;5054292;28;20118;-64
2023/05/23 03:27:15;;;;;;;6.05;3.47;;;;;;;23.79;54.17;99896.47;5054121;28;20468;-64
2023/05/23 03:29:43;;;;;;;5.40;3.38;;;;;;;23.78;54.22;99908.41;5054555;28;20095;-64
2023/05/23 03:32:12;;;;;;;6.63;3.30;;;;;;;23.78;54.22;99908.41;5054192;28;20087;-64
2023/05/23 03:34:40;;;;;;;5.35;3.53;;;;;;;23.76;54.12;99907.75;5053886;28;20422;-64
2023/05/23 03:37:08;;;;;;;5.50;3.40;;;;;;;23.75;54.08;99897.88;5053918;28;20059;-64
2023/05/23 03:39:36;;;;;;;4.85;3.42;;;;;;;23.74;54.14;99898.91;5053852;28;20486;-63
2023/05/23 03:42:08;;;;;;;5.03;3.08;;;;;;;23.73;54.20;99897.19;5053790;28;20049;-64
2023/05/23 03:44:36;;;;;;;4.45;3.00;;;;;;;23.72;54.15;99897.38;5053706;28;20583;-64
2023/05/23 03:47:05;;;;;;;5.03;3.28;;;;;;;23.71;54.09;99902.00;5053870;28;20051;-63
2023/05/23 03:49:34;;;;;;;4.80;3.20;;;;;;;23.69;54.11;99890.44;5053758;28;20059;-64
2023/05/23 03:52:02;;;;;;;4.72;3.28;;;;;;;23.69;54.25;99898.63;5052969;28;20052;-64
2023/05/23 03:54:30;;;;;;;5.20;3.47;;;;;;;23.68;54.28;99896.94;5053728;28;20107;-64
2023/05/23 03:56:58;;;;;;;5.15;3.20;;;;;;;23.67;54.17;99889.78;5053473;28;20059;-63
2023/05/23 03:59:28;;;;;;;4.50;3.20;;;;;;;23.66;53.85;99891.69;5053723;28;20136;-64
2023/05/23 04:01:57;;;;;;;5.38;3.20;;;;;;;23.65;54.22;99892.72;5053499;28;20138;-64
2023/05/23 04:04:25;;;;;;;4.25;3.00;;;;;;;23.65;54.21;99891.88;5053425;28;20524;-64
2023/05/23 04:06:54;;;;;;;4.97;3.20;;;;;;;23.65;54.33;99905.47;5053423;28;20099;-64
2023/05/23 04:09:22;;;;;;;4.70;3.10;;;;;;;23.64;54.40;99898.31;5053427;28;20474;-64
2023/05/23 04:11:51;;;;;;;4.97;3.33;;;;;;;23.63;54.16;99899.34;5053380;28;20057;-64
2023/05/23 04:14:21;;;;;;;4.95;3.10;;;;;;;23.62;54.18;99903.09;5053359;28;20056;-64
2023/05/23 04:16:50;;;;;;;4.63;3.17;;;;;;;23.60;54.31;99902.44;5053470;28;20083;-64
2023/05/23 04:19:19;;;;;;;5.40;3.05;;;;;;;23.61;54.38;99909.56;5053216;28;20060;-64
2023/05/23 04:21:47;;;;;;;5.03;3.30;;;;;;;23.60;54.35;99903.28;5052994;28;20049;-64
2023/05/23 04:24:15;;;;;;;4.85;3.15;;;;;;;23.59;54.27;99903.47;5053104;28;20052;-64
2023/05/23 04:26:43;;;;;;;4.40;2.97;;;;;;;23.59;54.33;99908.94;5052934;28;20091;-65
2023/05/23 04:29:12;;;;;;;4.85;2.90;;;;;;;23.58;54.27;99899.03;5053188;28;20049;-64
2023/05/23 04:31:40;;;;;;;4.15;2.95;;;;;;;23.57;54.27;99902.78;5053017;28;20071;-64
2023/05/23 04:34:10;;;;;;;5.30;2.80;;;;;;;23.57;54.35;99905.50;5052935;28;20133;-64
2023/05/23 04:36:39;;;;;;;4.70;2.88;;;;;;;23.56;54.28;99903.81;5052667;28;20405;-64
2023/05/23 04:39:07;;;;;;;4.50;3.05;;;;;;;23.56;54.29;99895.66;5052966;28;20056;-64
2023/05/23 04:41:35;;;;;;;5.82;3.20;;;;;;;23.55;54.27;99896.69;5052425;28;20053;-64
2023/05/23 04:44:04;;;;;;;4.25;3.08;;;;;;;23.55;54.32;99900.25;5052716;28;20044;-64
2023/05/23 04:46:33;;;;;;;4.30;3.10;;;;;;;23.54;54.35;99901.25;5052667;28;20067;-63
2023/05/23 04:49:01;;;;;;;5.00;3.20;;;;;;;23.54;54.35;99900.41;5052539;28;20048;-64
2023/05/23 04:51:30;;;;;;;4.75;3.00;;;;;;;23.53;54.38;99901.44;5052590;28;20041;-65
2023/05/23 04:53:58;;;;;;;4.10;3.10;;;;;;;23.53;54.30;99893.28;5052332;28;20139;-64
2023/05/23 04:56:27;;;;;;;4.40;3.00;;;;;;;23.52;54.49;99892.44;5052550;28;20049;-63
2023/05/23 04:58:55;;;;;;;4.90;3.10;;;;;;;23.52;54.42;99892.44;5052277;28;20045;-64
2023/05/23 05:01:24;;;;;;;4.90;3.00;;;;;;;23.52;54.40;99891.59;5052158;28;20131;-64
2023/05/23 05:03:52;;;;;;;4.68;3.00;;;;;;;23.51;54.50;99898.91;5051253;28;20045;-64
2023/05/23 05:06:21;;;;;;;5.57;3.28;;;;;;;23.51;54.40;99892.63;5052632;28;20049;-64
2023/05/23 05:08:51;;;;;;;4.60;2.90;;;;;;;23.51;54.40;99892.63;5052383;28;20076;-63
2023/05/23 05:11:19;;;;;;;4.53;2.97;;;;;;;23.51;54.47;99900.81;5051992;28;20041;-64
2023/05/23 05:13:47;;;;;;;4.75;2.92;;;;;;;23.50;54.36;99897.22;5051836;28;20091;-64
2023/05/23 05:16:15;;;;;;;4.70;3.03;;;;;;;23.50;54.39;99896.38;5051769;28;20478;-64
2023/05/23 05:18:43;;;;;;;4.72;2.90;;;;;;;23.49;54.44;99898.25;5052030;28;20044;-64
2023/05/23 05:21:11;;;;;;;5.03;3.00;;;;;;;23.49;54.53;99900.13;5051963;28;20135;-64
2023/05/23 05:23:45;;;;;;;4.07;3.00;;;;;;;23.49;54.50;99897.41;5052204;28;20525;-63
2023/05/23 05:26:14;;;;;;;4.85;2.90;;;;;;;23.48;54.46;99903.91;5051858;28;20041;-65
2023/05/23 05:28:43;;;;;;;4.53;2.83;;;;;;;23.48;54.50;99903.91;5051827;28;20045;-64
2023/05/23 05:31:14;;;;;;;4.70;3.00;;;;;;;23.46;54.50;99898.63;5051706;28;20136;-65
2023/05/23 05:33:44;;;;;;;3.88;2.95;;;;;;;23.47;54.55;99896.75;5051608;28;20049;-65
2023/05/23 05:36:13;;;;;;;5.43;3.03;;;;;;;23.47;54.58;99899.50;5051687;28;20084;-64
2023/05/23 05:38:41;;;;;;;4.85;2.80;;;;;;;23.47;54.42;99900.34;5051465;28;20049;-65
2023/05/23 05:41:09;;;;;;;4.75;3.20;;;;;;;23.47;54.39;99896.75;5051189;28;20136;-66
2023/05/23 05:43:39;;;;;;;4.45;3.00;;;;;;;23.47;54.55;99894.03;5051176;28;20478;-65
2023/05/23 05:46:07;;;;;;;4.38;3.10;;;;;;;23.46;54.67;99897.81;5051186;28;20098;-64
2023/05/23 05:48:35;;;;;;;3.92;2.88;;;;;;;23.46;54.65;99886.91;5051130;28;20059;-65
2023/05/23 05:51:03;;;;;;;4.63;3.03;;;;;;;23.46;54.58;99893.19;5051096;28;20055;-65
2023/05/23 05:53:31;;;;;;;4.97;2.80;;;;;;;23.45;54.68;99887.91;5050761;28;20098;-64
2023/05/23 05:55:59;;;;;;;4.20;3.00;;;;;;;23.45;54.62;99894.22;5050986;28;20049;-63
2023/05/23 05:58:28;;;;;;;4.85;2.97;;;;;;;23.46;54.65;99895.06;5051053;28;20454;-64
2023/05/23 06:00:57;;;;;;;4.07;2.70;;;;;;;23.45;54.62;99898.81;5051333;28;20045;-65
2023/05/23 06:03:26;;;;;;;4.50;2.90;;;;;;;23.45;54.62;99898.81;5068536;28;20139;-63
2023/05/23 06:05:54;;;;;;;4.85;2.92;;;;;;;23.45;54.68;99890.63;5070644;28;20055;-64
2023/05/23 06:08:22;;;;;;;4.00;2.95;;;;;;;23.44;54.64;99892.50;5070579;28;20332;-63
2023/05/23 06:10:51;;;;;;;4.32;2.90;;;;;;;23.43;54.62;99894.38;5071115;28;20135;-63
2023/05/23 06:13:19;;;;;;;5.22;3.03;;;;;;;23.45;54.73;99887.91;5069726;28;20523;-63
2023/05/23 06:15:47;;;;;;;4.80;3.13;;;;;;;23.45;54.79;99901.53;5070641;28;20052;-63
2023/05/23 06:18:17;;;;;;;4.53;2.90;;;;;;;23.45;54.74;99891.50;5070585;28;20044;-63
2023/05/23 06:20:45;;;;;;;5.05;2.92;;;;;;;23.44;54.83;99895.22;5070855;28;20102;-64
2023/05/23 06:23:13;;;;;;;4.53;2.97;;;;;;;23.43;54.86;99896.28;5069804;28;20052;-63
2023/05/23 06:25:41;;;;;;;5.65;3.22;;;;;;;23.45;54.77;99901.53;5070983;28;20049;-63
2023/05/23 06:28:09;;;;;;;4.38;3.00;;;;;;;23.45;54.89;99896.06;5070827;28;20048;-63
2023/05/23 06:30:38;;;;;;;4.38;2.70;;;;;;;23.45;54.89;99893.34;5070663;28;20049;-63
2023/05/23 06:33:06;;;;;;;4.10;2.70;;;;;;;23.45;54.85;99896.06;5070395;28;20059;-63
2023/05/23 06:35:36;;;;;;;4.53;2.75;;;;;;;23.46;54.91;99889.63;5070431;28;20627;-63
2023/05/23 06:38:04;;;;;;;4.63;2.85;;;;;;;23.46;54.98;99895.06;5070745;28;20048;-63
2023/05/23 06:40:32;;;;;;;4.57;2.90;;;;;;;23.46;54.91;99895.91;5070575;28;20145;-63
2023/05/23 06:43:00;;;;;;;4.40;2.92;;;;;;;23.46;54.93;99892.34;5070231;28;20080;-63
2023/05/23 06:45:29;;;;;;;4.82;3.03;;;;;;;23.47;54.91;99897.59;5070482;28;20053;-63
2023/05/23 06:47:59;;;;;;;4.38;2.90;;;;;;;23.47;54.93;99888.59;5070437;28;20385;-64
2023/05/23 06:50:28;;;;;;;5.32;2.95;;;;;;;23.48;55.21;99884.84;5070659;28;20052;-61
2023/05/23 06:52:58;;;;;;;6.35;3.25;;;;;;;23.49;55.61;99886.53;5070570;28;20056;-62
2023/05/23 06:55:27;;;;;;;5.13;3.10;;;;;;;23.49;55.39;99881.94;5070620;28;20148;-63
2023/05/23 06:57:55;;;;;;;4.65;3.05;;;;;;;23.50;55.38;99885.50;5070477;28;20044;-63
2023/05/23 07:00:23;;;;;;;5.43;3.17;;;;;;;23.50;55.55;99880.06;5070246;28;20393;-64
2023/05/23 07:02:52;;;;;;;6.00;3.05;;;;;;;23.51;55.54;99882.59;5068713;28;20088;-62
2023/05/23 07:05:22;;;;;;;5.85;3.53;;;;;;;23.51;55.72;99879.03;5070349;28;20044;-63
2023/05/23 07:07:51;;;;;;;4.70;3.20;;;;;;;23.52;55.66;99878.00;5070173;28;20076;-64
2023/05/23 07:10:23;;;;;;;4.35;3.38;;;;;;;23.52;55.72;99875.25;5070157;28;20044;-64
2023/05/23 07:12:51;;;;;;;5.53;3.53;;;;;;;23.52;55.57;99873.38;5069914;28;20049;-64
2023/05/23 07:15:20;;;;;;;5.35;3.30;;;;;;;23.52;55.69;99862.50;5069874;28;20048;-63
2023/05/23 07:17:48;;;;;;;6.30;2.90;;;;;;;23.53;55.79;99861.47;5070407;28;20076;-64
2023/05/23 07:20:16;;;;;;;6.75;3.33;;;;;;;23.54;55.91;99865.88;5070344;28;20055;-64
2023/05/23 07:22:44;;;;;;;6.00;3.13;;;;;;;23.54;55.57;99863.16;5070099;28;20164;-65
2023/05/23 07:25:12;;;;;;;4.65;3.20;;;;;;;23.54;55.61;99867.75;5069822;28;20404;-64
2023/05/23 07:27:42;;;;;;;4.78;3.20;;;;;;;23.54;55.84;99865.88;5072747;28;20055;-64
2023/05/23 07:30:10;;;;;;;5.25;3.33;;;;;;;23.56;55.76;99865.72;5073881;28;20070;-63
2023/05/23 07:32:38;;;;;;;4.90;3.00;;;;;;;23.56;55.68;99858.41;5073595;28;20192;-64
2023/05/23 07:35:10;;;;;;;6.70;3.10;;;;;;;23.56;55.67;99860.28;5073503;28;20049;-63
2023/05/23 07:37:38;;;;;;;5.85;3.30;;;;;;;23.57;55.80;99861.97;5073706;28;20045;-63
2023/05/23 07:40:09;;;;;;;5.88;3.60;;;;;;;23.57;55.74;99868.25;5073418;28;20048;-63
2023/05/23 07:42:37;;;;;;;5.03;3.30;;;;;;;23.58;55.80;99864.50;5073260;28;20095;-62
2023/05/23 07:45:09;;;;;;;5.45;3.35;;;;;;;23.59;55.81;99863.50;5073352;28;20140;-63
2023/05/23 07:47:37;;;;;;;4.97;3.20;;;;;;;23.59;55.84;99859.94;5073191;28;20504;-63
2023/05/23 07:50:06;;;;;;;5.55;3.15;;;;;;;23.59;55.65;99849.03;5073074;28;20477;-62
2023/05/23 07:52:35;;;;;;;4.88;3.25;;;;;;;23.60;55.89;99859.72;5072969;28;20546;-63
2023/05/23 07:55:03;;;;;;;6.05;3.42;;;;;;;23.61;55.83;99852.41;5072760;28;20457;-64
2023/05/23 07:57:31;;;;;;;4.75;2.97;;;;;;;23.61;55.79;99852.41;5073201;28;20090;-64
2023/05/23 07:59:59;;;;;;;5.25;3.13;;;;;;;23.61;55.88;99850.53;5073000;28;20056;-65
2023/05/23 08:02:29;;;;;;;5.53;3.42;;;;;;;23.62;56.01;99848.66;5073241;28;20049;-63
2023/05/23 08:04:58;;;;;;;4.32;3.05;;;;;;;23.62;55.90;99849.50;5072098;28;20041;-63
2023/05/23 08:07:26;;;;;;;5.07;2.97;;;;;;;23.62;55.92;99845.94;5073417;28;20109;-63
2023/05/23 08:09:54;;;;;;;5.05;3.30;;;;;;;23.64;56.15;99852.03;5073149;28;20044;-64
2023/05/23 08:12:23;;;;;;;4.78;3.30;;;;;;;23.64;55.92;99842.00;5072768;28;20095;-62
2023/05/23 08:14:51;;;;;;;4.90;3.28;;;;;;;23.65;56.08;99842.84;5072892;28;20044;-62
2023/05/23 08:17:19;;;;;;;4.30;3.10;;;;;;;23.66;56.09;99844.53;5072757;28;20522;-63
2023/05/23 08:19:49;;;;;;;4.68;3.08;;;;;;;23.66;56.06;99850.00;5072628;28;20110;-63
2023/05/23 08:22:17;;;;;;;5.75;3.35;;;;;;;23.67;56.16;99846.22;5072396;28;20044;-63
2023/05/23 08:24:45;;;;;;;6.13;3.50;;;;;;;23.69;56.48;99855.06;5072641;28;20118;-63
2023/05/23 08:27:14;;;;;;;5.22;3.30;;;;;;;23.70;56.19;99848.56;5072916;28;20131;-63
2023/05/23 08:29:43;;;;;;;6.80;3.70;;;;;;;23.69;56.18;99850.44;5072529;28;20106;-63
2023/05/23 08:32:11;;;;;;;4.68;3.40;;;;;;;23.72;56.21;99857.38;5072772;28;20052;-63
2023/05/23 08:34:40;;;;;;;4.88;3.10;;;;;;;23.73;56.32;99852.78;5072411;28;20139;-64
2023/05/23 08:37:10;;;;;;;4.55;3.35;;;;;;;23.73;56.42;99850.06;5072298;28;20547;-63
2023/05/23 08:39:38;;;;;;;6.45;3.30;;;;;;;23.74;56.24;99860.81;5072599;28;20045;-64
2023/05/23 08:42:09;;;;;;;5.05;3.28;;;;;;;23.75;56.45;99851.59;5072511;28;20441;-64
2023/05/23 08:44:39;;;;;;;5.07;3.33;;;;;;;23.76;56.36;99847.84;5072020;28;20076;-64
2023/05/23 08:47:08;;;;;;;5.38;3.42;;;;;;;23.77;56.43;99846.81;5071114;28;20102;-63
2023/05/23 08:49:38;;;;;;;4.95;3.40;;;;;;;23.78;56.64;99839.47;5070838;28;20040;-63
2023/05/23 08:52:12;;;;;;;5.18;3.47;;;;;;;23.78;56.54;99843.03;5071930;28;20044;-64
2023/05/23 08:54:41;;;;;;;6.57;3.80;;;;;;;23.80;56.63;99842.84;5071438;28;20413;-64
2023/05/23 08:57:10;;;;;;;4.60;3.05;;;;;;;23.80;56.67;99840.97;5071821;28;20044;-64
2023/05/23 08:59:39;;;;;;;5.32;3.42;;;;;;;23.82;56.78;99841.63;5071887;28;20048;-63
2023/05/23 09:02:10;;;;;;;4.88;3.55;;;;;;;23.82;56.65;99838.91;5071148;28;20077;-64
2023/05/23 09:04:38;;;;;;;6.88;3.85;;;;;;;23.83;56.67;99835.13;5070899;28;20540;-64
2023/05/23 09:07:07;;;;;;;5.05;3.60;;;;;;;23.85;56.71;99844.00;5071288;28;20041;-62
2023/05/23 09:09:36;;;;;;;5.32;3.60;;;;;;;23.86;56.71;99833.94;5071449;28;20055;-63
2023/05/23 09:12:05;;;;;;;4.85;3.47;;;;;;;23.87;56.75;99841.91;5071236;28;20075;-63
2023/05/23 09:14:33;;;;;;;5.88;3.67;;;;;;;23.87;56.69;99846.53;5071064;28;20159;-64
2023/05/23 09:17:02;;;;;;;6.97;3.75;;;;;;;23.89;56.75;99844.44;5071289;28;20044;-64
2023/05/23 09:19:32;;;;;;;5.65;3.50;;;;;;;23.91;56.93;99847.81;5071150;28;20055;-65
2023/05/23 09:22:03;;;;;;;4.95;3.60;;;;;;;23.92;56.65;99841.34;5054908;28;20040;-63
2023/05/23 09:24:36;;;;;;;6.00;3.72;;;;;;;23.94;56.76;99836.56;5070702;28;20048;-63
2023/05/23 09:27:06;;;;;;;4.55;3.30;;;;;;;23.94;56.79;99840.13;5071018;28;20053;-64
2023/05/23 09:29:37;;;;;;;4.72;3.28;;;;;;;23.95;56.83;99830.94;5071214;28;20041;-63
2023/05/23 09:32:13;;;;;;;5.45;3.53;;;;;;;23.96;57.02;99840.78;5055368;28;20047;-64
2023/05/23 09:34:42;;;;;;;5.65;3.67;;;;;;;23.99;57.07;99840.41;5070864;28;20044;-64
2023/05/23 09:37:17;;;;;;;5.70;3.45;;;;;;;24.01;56.97;99836.63;5072652;28;20489;-64
2023/05/23 09:39:48;;;;;;;5.28;3.47;;;;;;;24.04;56.87;99841.72;5071169;28;20128;-64
2023/05/23 09:42:20;;;;;;;5.30;3.60;;;;;;;24.05;57.05;99832.53;5071048;28;20048;-65
2023/05/23 09:44:49;;;;;;;4.57;3.33;;;;;;;24.06;56.92;99835.06;5070603;28;20049;-64
2023/05/23 09:47:17;;;;;;;5.38;3.63;;;;;;;24.07;56.78;99833.16;5070975;28;20128;-65
2023/05/23 09:49:46;;;;;;;6.15;3.83;;;;;;;24.10;56.87;99841.78;5070416;28;20131;-63
2023/05/23 09:52:14;;;;;;;4.82;3.50;;;;;;;24.11;57.07;99829.88;5070985;28;20056;-65
2023/05/23 09:54:43;;;;;;;6.38;3.53;;;;;;;24.13;56.77;99835.16;5070439;28;20110;-65
2023/05/23 09:57:15;;;;;;;5.25;3.80;;;;;;;24.14;57.08;99825.94;5071926;28;20050;-64
2023/05/23 09:59:49;;;;;;;6.07;3.80;;;;;;;24.16;57.03;99824.69;5070764;28;20048;-64
2023/05/23 10:02:24;;;;;;;4.85;3.83;;;;;;;24.17;56.90;99829.13;5070589;28;20059;-64
2023/05/23 10:04:53;;;;;;;6.68;3.85;;;;;;;24.19;56.68;99823.47;5070444;28;20063;-64
2023/05/23 10:07:24;;;;;;;5.90;3.90;;;;;;;24.21;56.77;99824.97;5070338;28;20130;-64
2023/05/23 10:10:00;;;;;;;5.22;3.85;;;;;;;24.23;56.57;99824.78;5070501;28;20144;-65
2023/05/23 10:12:44;;;;;;;6.68;4.10;;;;;;;24.26;56.74;99818.94;5070377;28;20059;-64
2023/05/23 10:15:16;;;;;;;6.53;3.92;;;;;;;24.26;56.62;99810.78;5070129;28;20049;-64
2023/05/23 10:18:02;;;;;;;6.55;4.20;;;;;;;24.29;56.40;99813.13;5070618;28;20053;-64
2023/05/23 10:20:32;;;;;;;6.40;4.10;;;;;;;24.31;56.62;99813.78;5070561;28;20048;-65
2023/05/23 10:23:01;;;;;;;7.10;4.13;;;;;;;24.32;56.43;99807.34;5070263;28;20052;-64
2023/05/23 10:25:29;;;;;;;5.25;3.92;;;;;;;24.35;56.46;99808.81;5070462;28;20044;-63
2023/05/23 10:28:00;;;;;;;6.13;3.95;;;;;;;24.38;56.52;99806.53;5070565;28;20044;-65
2023/05/23 10:30:31;;;;;;;5.72;4.03;;;;;;;24.40;56.36;99815.38;5070487;28;20053;-64
2023/05/23 10:33:00;;;;;;;5.80;4.20;;;;;;;24.43;56.25;99803.25;5070679;28;20405;-65
2023/05/23 10:35:41;;;;;;;6.47;4.20;;;;;;;24.45;56.27;99791.13;5070453;28;20498;-65
2023/05/23 10:38:21;;;;;;;6.97;4.40;;;;;;;24.46;55.99;99800.97;5070456;28;20465;-66
2023/05/23 10:40:56;;;;;;;6.68;4.28;;;;;;;24.49;56.36;99792.41;5070801;28;20125;-64
2023/05/23 10:43:31;;;;;;;7.32;4.35;;;;;;;24.52;56.27;99800.22;5070370;28;20049;-64
2023/05/23 10:45:59;;;;;;;6.38;4.35;;;;;;;24.54;56.19;99805.47;5070546;28;20041;-63
2023/05/23 10:48:34;;;;;;;6.63;4.35;;;;;;;24.55;56.00;99802.56;5071155;28;20084;-64
2023/05/23 10:51:04;;;;;;;5.40;3.85;;;;;;;24.58;56.17;99792.28;5070705;28;20091;-65
2023/05/23 10:53:38;;;;;;;8.15;4.30;;;;;;;24.60;56.15;99790.22;5070563;28;20450;-64
2023/05/23 10:56:07;;;;;;;6.25;4.75;;;;;;;24.64;55.76;99791.53;5070483;28;20041;-64
2023/05/23 10:58:39;;;;;;;5.88;4.82;;;;;;;24.67;55.74;99791.13;5070339;28;20053;-64
2023/05/23 11:01:09;;;;;;;7.30;4.53;;;;;;;24.70;55.89;99782.53;5071957;28;20087;-63
2023/05/23 11:03:48;;;;;;;6.93;4.63;;;;;;;24.74;55.54;99779.25;5074160;28;20044;-63
2023/05/23 11:06:32;;;;;;;7.32;4.82;;;;;;;24.78;55.60;99779.69;5074231;28;20476;-63
2023/05/23 11:09:05;;;;;;;6.45;4.72;;;;;;;24.81;55.32;99779.31;5074226;28;20144;-63
2023/05/23 11:12:05;;;;;;;7.28;4.50;;;;;;;24.86;55.58;99771.38;5073629;28;20144;-64
2023/05/23 11:14:54;;;;;;;9.27;4.60;;;;;;;24.90;55.47;99769.97;5039739;28;20049;-64
2023/05/23 11:17:33;;;;;;;6.90;4.53;;;;;;;24.94;55.54;99765.78;5073758;28;20052;-64
2023/05/23 11:20:05;;;;;;;8.60;4.90;;;;;;;24.99;55.60;99759.72;5073990;28;20076;-64
2023/05/23 11:22:34;;;;;;;7.03;4.85;;;;;;;25.02;55.15;99754.78;5073833;28;20070;-65
2023/05/23 11:25:07;;;;;;;8.73;4.90;;;;;;;25.07;55.45;99757.72;5073580;28;20114;-64
2023/05/23 11:27:36;;;;;;;;;;;;;;;25.10;55.46;99751.91;5074569;28;20453;-65
2023/05/23 11:30:08;;;;;;;7.00;4.68;;;;;;;25.14;55.35;99746.03;5073498;28;19920;-64
2023/05/23 11:32:37;;;;;;;5.63;4.53;;;;;;;25.19;55.48;99740.81;5073593;28;20055;-64
2023/05/23 11:35:07;;;;;;;7.28;4.82;;;;;;;25.22;55.55;99744.00;5073457;28;20561;-65
2023/05/23 11:37:37;;;;;;;6.18;4.47;;;;;;;25.26;55.52;99745.28;5073307;28;20516;-65
2023/05/23 11:40:25;;;;;;;5.88;4.75;;;;;;;25.31;55.21;99747.44;5073469;28;20075;-64
2023/05/23 11:42:53;;;;;;;7.55;4.72;;;;;;;25.35;55.44;99743.25;5072814;28;20060;-65
2023/05/23 11:45:24;;;;;;;7.32;4.93;;;;;;;25.39;55.33;99728.16;5073272;28;20048;-65
2023/05/23 11:47:52;;;;;;;5.97;4.60;;;;;;;25.44;55.27;99720.19;5073284;28;20053;-65